Terminal Aerodrome Forecast
Issued by NWS

Home | Current Version | Previous Version | Text Only | Print | Product List | Glossary On
Versions: 1 2 3 4 5 6 7 8 9 10 11 12 13 14 15 16 17 18
454
FTUS46 KMTR 212320
TAFSNS
TAF
KSNS 212320Z 2200/2224 14010KT P6SM BKN040 OVC060
     FM220300 14015G20KT P6SM -RA OVC040
     FM220600 14030G40KT 4SM RA OVC035 WS015/15060KT
     FM221300 13020G30KT 6SM -RA OVC030
     FM221600 14020G30KT P6SM -SHRA OVC040=

USA.gov is the U.S. government's official web portal to all federal, state and local government web resources and services.